PKVK1: Neosho R, nr Parkerville KS

Data processed at Thu May 23 2019 23:50


All information presented herein is the property of the government of the United States of America and may be revised or deleted at any time without prior notice.
Dissemination of this information without the expressed written consent of the Public Affairs Office, Tulsa District U.S. Army Corps of Engineers is strictly prohibited.
These data are gathered electronically and, as presented, have not undergone any form of quality control. These data are not guaranteed to be valid or correct.
Go to home page.
Go to station list.
Go to home page.

Downstream station:


Previous Day
Next Day
Current Day
    
SHEF ID:       PKVK1     NEOSHO R NR PARKERVILLE, KS
STATION TYPE:  
Regulating: Stage =    20.00, Flow =     3767

               PRECIP     STAGE  RIV-FLOW  BAT-LOAD
                   in        ft       cfs      volt
              Ccp-Rev   Ccp-Rev   Ccp-Rev   Ccp-Rev
(US/Central)
05/23 00:00      0.00      9.19       170     12.81
05/23 01:00      0.00      9.17       167     12.73
05/23 02:00      0.00      9.14       162     12.73
05/23 03:00      0.00      9.12       159     12.73
05/23 04:00      0.00      9.08       153     12.73
05/23 05:00      0.00      9.06       150     12.73
05/23 06:00      0.00      9.03       145     12.73
05/23 07:00      0.00      9.01       142     12.73
05/23 08:00      0.00      8.99       139     12.81
05/23 09:00      0.00      8.97       136     12.89
05/23 10:00      0.00      8.96       135     13.44
05/23 11:00      0.00      8.95       133     13.53
05/23 12:00      0.00      8.93       130     13.44
05/23 13:00      0.00      8.92       128     13.37
05/23 14:00      0.00      8.90       125     13.13
05/23 15:00      0.00      8.89       124     13.13
05/23 16:00      0.00      8.87       121     13.05
05/23 17:00      0.00      8.86       119     12.97
05/23 18:00      0.00      8.84       116     12.89
05/23 19:00      0.00      8.83       115     12.89
05/23 20:00      0.00      8.82       113     12.81
05/23 21:00      0.00      8.80       110     12.81
05/23 22:00      0.00      8.80       110     12.81
05/23 23:00      ----      ----      ----      ----